Time;durP1;ratioP1;P1;durP2;ratioP2;P2;SDS_P1;SDS_P2;PMS_P1;PMS_P2;Temp;Humidity;BMP_temperature;BMP_pressure;BME280_temperature;BME280_humidity;BME280_pressure;Samples;Min_cycle;Max_cycle;Signal;HPM_P1;HPM_P2
2022/06/27 00:02:19;;;;;;;;;;;;;;;;;;5060561;28;19948;-85
2022/06/27 00:04:45;;;;;;;;;;;;;;;;;;5044799;28;19992;-83
2022/06/27 00:07:11;;;;;;;;;;;;;;;;;;5048190;28;20464;-84
2022/06/27 00:09:38;;;;;;;;;;;;;;;;;;5063862;28;19950;-85
2022/06/27 00:12:04;;;;;;;;;;;;;;;;;;5050891;28;20387;-85
2022/06/27 00:14:30;;;;;;;;;;;;;;;;;;5067989;28;19983;-85
2022/06/27 00:16:56;;;;;;;;;;;;;;;;;;5069235;28;20380;-84
2022/06/27 00:19:22;;;;;;;;;;;;;;;;;;5051204;28;19947;-85
2022/06/27 00:21:48;;;;;;;;;;;;;;;;;;5057148;28;19952;-84
2022/06/27 00:24:15;;;;;;;;;;;;;;;;;;5057766;28;19944;-83
2022/06/27 00:26:41;;;;;;;;;;;;;;;;;;5062973;28;19921;-85
2022/06/27 00:29:07;;;;;;;;;;;;;;;;;;5055842;28;19952;-85
2022/06/27 00:31:33;;;;;;;;;;;;;;;;;;5069285;28;19955;-84
2022/06/27 00:33:59;;;;;;;;;;;;;;;;;;5067650;28;20418;-85
2022/06/27 00:36:26;;;;;;;;;;;;;;;;;;5061192;28;19948;-85
2022/06/27 00:38:52;;;;;;;;;;;;;;;;;;5063197;28;19948;-84
2022/06/27 00:41:18;;;;;;;;;;;;;;;;;;5064927;28;19940;-83
2022/06/27 00:43:44;;;;;;;;;;;;;;;;;;5050685;28;19959;-85
2022/06/27 00:46:10;;;;;;;;;;;;;;;;;;5065025;28;19944;-85
2022/06/27 00:48:36;;;;;;;;;;;;;;;;;;5058128;28;19948;-85
2022/06/27 00:51:03;;;;;;;;;;;;;;;;;;5065993;28;20483;-85
2022/06/27 00:53:29;;;;;;;;;;;;;;;;;;5047497;28;19967;-85
2022/06/27 00:55:55;;;;;;;;;;;;;;;;;;5065864;28;19975;-84
2022/06/27 00:58:21;;;;;;;;;;;;;;;;;;5065589;28;19963;-85
2022/06/27 01:00:47;;;;;;;;;;;;;;;;;;5062990;28;20352;-85
2022/06/27 01:03:13;;;;;;;;;;;;;;;;;;5048379;28;19950;-85
2022/06/27 01:05:51;;;;;;;;;;;;;;;;;;5061766;28;19967;-85
2022/06/27 01:08:17;;;;;;;;;;;;;;;;;;5062459;28;20289;-85
2022/06/27 01:10:43;;;;;;;;;;;;;;;;;;5061348;28;20026;-85
2022/06/27 01:13:09;;;;;;;;;;;;;;;;;;5067310;28;20395;-84
2022/06/27 01:15:35;;;;;;;;;;;;;;;;;;5065415;28;19952;-85
2022/06/27 01:18:02;;;;;;;;;;;;;;;;;;5066943;28;19951;-85
2022/06/27 01:20:28;;;;;;;;;;;;;;;;;;5054829;28;20005;-85
2022/06/27 01:22:54;;;;;;;;;;;;;;;;;;5056809;28;19940;-85
2022/06/27 01:25:20;;;;;;;;;;;;;;;;;;5059623;28;19944;-85
2022/06/27 01:27:46;;;;;;;;;;;;;;;;;;5061482;28;19951;-85
2022/06/27 01:30:12;;;;;;;;;;;;;;;;;;5060389;28;20420;-85
2022/06/27 01:32:39;;;;;;;;;;;;;;;;;;5055509;28;19959;-85
2022/06/27 01:35:05;;;;;;;;;;;;;;;;;;5048933;28;19944;-85
2022/06/27 01:37:31;;;;;;;;;;;;;;;;;;5061065;28;20176;-84
2022/06/27 01:40:00;;;;;;;;;;;;;;;;;;5053587;28;19940;-84
2022/06/27 01:42:26;;;;;;;;;;;;;;;;;;5060993;28;19924;-84
2022/06/27 01:44:52;;;;;;;;;;;;;;;;;;5049262;28;19974;-84
2022/06/27 01:47:18;;;;;;;;;;;;;;;;;;5065693;28;19952;-83
2022/06/27 01:49:44;;;;;;;;;;;;;;;;;;5048592;28;19972;-84
2022/06/27 01:52:10;;;;;;;;;;;;;;;;;;5066333;28;19985;-84
2022/06/27 01:54:37;;;;;;;;;;;;;;;;;;5060936;28;19967;-85
2022/06/27 01:57:03;;;;;;;;;;;;;;;;;;5065381;28;19916;-84
2022/06/27 01:59:29;;;;;;;;;;;;;;;;;;5060200;28;20467;-84
2022/06/27 02:01:58;;;;;;;;;;;;;;;;;;5063958;28;20006;-84
2022/06/27 02:04:24;;;;;;;;;;;;;;;;;;5047170;28;19959;-84
2022/06/27 02:06:50;;;;;;;;;;;;;;;;;;5059285;28;19950;-85
2022/06/27 02:09:16;;;;;;;;;;;;;;;;;;5050231;28;19940;-84
2022/06/27 02:11:42;;;;;;;;;;;;;;;;;;5061745;28;19948;-85
2022/06/27 02:14:09;;;;;;;;;;;;;;;;;;5057512;28;19952;-84
2022/06/27 02:16:35;;;;;;;;;;;;;;;;;;5066463;28;20371;-84
2022/06/27 02:19:01;;;;;;;;;;;;;;;;;;5057871;28;19967;-85
2022/06/27 02:21:29;;;;;;;;;;;;;;;;;;5063492;28;19947;-85
2022/06/27 02:23:55;;;;;;;;;;;;;;;;;;5064898;28;19944;-85
2022/06/27 02:26:21;;;;;;;;;;;;;;;;;;5054454;28;19948;-85
2022/06/27 02:28:47;;;;;;;;;;;;;;;;;;5053861;28;20021;-85
2022/06/27 02:31:14;;;;;;;;;;;;;;;;;;5053615;28;19952;-84
2022/06/27 02:33:40;;;;;;;;;;;;;;;;;;5062935;28;19960;-85
2022/06/27 02:36:06;;;;;;;;;;;;;;;;;;5055502;28;19957;-81
2022/06/27 02:38:32;;;;;;;;;;;;;;;;;;5059762;28;19998;-84
2022/06/27 02:40:58;;;;;;;;;;;;;;;;;;5058367;28;19944;-85
2022/06/27 02:43:24;;;;;;;;;;;;;;;;;;5068870;28;19947;-85
2022/06/27 02:45:51;;;;;;;;;;;;;;;;;;5066138;28;19963;-85
2022/06/27 02:48:18;;;;;;;;;;;;;;;;;;5050852;28;19963;-85
2022/06/27 02:50:44;;;;;;;;;;;;;;;;;;5068147;28;19959;-85
2022/06/27 02:53:10;;;;;;;;;;;;;;;;;;5060320;28;19968;-85
2022/06/27 02:55:37;;;;;;;;;;;;;;;;;;5057683;28;19968;-85
2022/06/27 02:58:03;;;;;;;;;;;;;;;;;;5065544;28;19959;-85
2022/06/27 03:00:29;;;;;;;;;;;;;;;;;;5059063;28;19952;-85
2022/06/27 03:02:55;;;;;;;;;;;;;;;;;;5069209;28;20005;-85
2022/06/27 03:05:21;;;;;;;;;;;;;;;;;;5061371;28;19948;-85
2022/06/27 03:07:48;;;;;;;;;;;;;;;;;;5067403;28;19948;-86
2022/06/27 03:10:14;;;;;;;;;;;;;;;;;;5069361;28;19956;-84
2022/06/27 03:12:40;;;;;;;;;;;;;;;;;;5067033;28;19952;-85
2022/06/27 03:15:06;;;;;;;;;;;;;;;;;;5067362;28;19944;-81
2022/06/27 03:17:32;;;;;;;;;;;;;;;;;;5038559;28;19960;-87
2022/06/27 03:20:05;;;;;;;;;;;;;;;;;;5052148;28;20615;-86
2022/06/27 03:22:35;;;;;;;;;;;;;;;;;;5024356;28;21547;-85
2022/06/27 03:25:06;;;;;;;;;;;;;;;;;;5017309;28;20523;-85
2022/06/27 03:27:36;;;;;;;;;;;;;;;;;;5028427;28;19983;-88
2022/06/27 03:30:19;;;;;;;;;;;;;;;;;;5000296;28;19920;-86
2022/06/27 03:32:51;;;;;;;;;;;;;;;;;;5001450;28;19913;-86
2022/06/27 03:35:26;;;;;;;;;;;;;;;;;;4988033;28;19913;-87
2022/06/27 03:38:09;;;;;;;;;;;;;;;;;;5016614;28;19917;-85
2022/06/27 03:40:38;;;;;;;;;;;;;;;;;;5017959;28;19913;-84
2022/06/27 03:43:04;;;;;;;;;;;;;;;;;;5035138;28;19948;-84
2022/06/27 03:45:30;;;;;;;;;;;;;;;;;;5065631;28;20386;-85
2022/06/27 03:47:56;;;;;;;;;;;;;;;;;;5067448;28;19994;-85
2022/06/27 03:50:22;;;;;;;;;;;;;;;;;;5064280;28;20388;-83
2022/06/27 03:52:49;;;;;;;;;;;;;;;;;;5063497;28;19952;-85
2022/06/27 03:55:15;;;;;;;;;;;;;;;;;;5063617;28;20391;-84
2022/06/27 03:57:41;;;;;;;;;;;;;;;;;;5069947;28;20002;-84
2022/06/27 04:00:10;;;;;;;;;;;;;;;;;;5067922;28;20446;-84
2022/06/27 04:02:36;;;;;;;;;;;;;;;;;;5070232;28;19963;-84
2022/06/27 04:05:02;;;;;;;;;;;;;;;;;;5064746;28;20446;-84
2022/06/27 04:07:29;;;;;;;;;;;;;;;;;;5060999;28;19951;-85
2022/06/27 04:09:55;;;;;;;;;;;;;;;;;;5056054;28;19944;-84
2022/06/27 04:12:21;;;;;;;;;;;;;;;;;;5059557;28;19940;-83
2022/06/27 04:14:47;;;;;;;;;;;;;;;;;;5064861;28;19974;-83
2022/06/27 04:17:13;;;;;;;;;;;;;;;;;;5060752;28;19959;-83
2022/06/27 04:19:40;;;;;;;;;;;;;;;;;;5060570;28;19955;-84
2022/06/27 04:22:08;;;;;;;;;;;;;;;;;;5060044;28;19959;-84
2022/06/27 04:24:34;;;;;;;;;;;;;;;;;;5064110;28;19948;-84
2022/06/27 04:27:00;;;;;;;;;;;;;;;;;;5060174;28;19955;-85
2022/06/27 04:29:27;;;;;;;;;;;;;;;;;;5063151;28;19956;-84
2022/06/27 04:32:04;;;;;;;;;;;;;;;;;;;;;
2022/06/27 04:34:31;;;;;;;;;;;;;;;;;;5055527;28;20400;-84
2022/06/27 04:36:58;;;;;;;;;;;;;;;;;;5067366;28;19940;-85
2022/06/27 04:39:24;;;;;;;;;;;;;;;;;;5058133;28;19962;-85
2022/06/27 04:41:50;;;;;;;;;;;;;;;;;;5063619;28;19962;-84
2022/06/27 04:44:18;;;;;;;;;;;;;;;;;;5058812;28;20317;-85
2022/06/27 04:46:47;;;;;;;;;;;;;;;;;;5056404;28;19916;-84
2022/06/27 04:49:14;;;;;;;;;;;;;;;;;;5064788;28;19970;-84
2022/06/27 04:51:41;;;;;;;;;;;;;;;;;;5054353;28;19947;-85
2022/06/27 04:54:08;;;;;;;;;;;;;;;;;;5064409;28;20010;-83
2022/06/27 04:56:35;;;;;;;;;;;;;;;;;;5066449;28;19959;-84
2022/06/27 04:59:01;;;;;;;;;;;;;;;;;;5068871;28;20454;-84
2022/06/27 05:01:27;;;;;;;;;;;;;;;;;;5062397;28;19952;-85
2022/06/27 05:03:53;;;;;;;;;;;;;;;;;;5064630;28;19956;-84
2022/06/27 05:06:19;;;;;;;;;;;;;;;;;;5047757;28;19952;-84
2022/06/27 05:08:46;;;;;;;;;;;;;;;;;;5049253;28;19948;-85
2022/06/27 05:11:12;;;;;;;;;;;;;;;;;;5061558;28;19955;-84
2022/06/27 05:13:38;;;;;;;;;;;;;;;;;;5042305;28;20397;-84
2022/06/27 05:16:04;;;;;;;;;;;;;;;;;;5061827;28;19963;-84
2022/06/27 05:18:31;;;;;;;;;;;;;;;;;;5059805;28;20400;-84
2022/06/27 05:20:57;;;;;;;;;;;;;;;;;;5057533;28;19955;-82
2022/06/27 05:23:23;;;;;;;;;;;;;;;;;;5053831;28;20544;-84
2022/06/27 05:25:50;;;;;;;;;;;;;;;;;;5046192;28;19953;-84
2022/06/27 05:28:16;;;;;;;;;;;;;;;;;;5062268;28;19955;-83
2022/06/27 05:30:42;;;;;;;;;;;;;;;;;;5057556;28;20321;-83
2022/06/27 05:33:08;;;;;;;;;;;;;;;;;;5056594;28;19952;-84
2022/06/27 05:35:34;;;;;;;;;;;;;;;;;;5060475;28;19967;-84
2022/06/27 05:38:01;;;;;;;;;;;;;;;;;;5058355;28;19959;-85
2022/06/27 05:40:27;;;;;;;;;;;;;;;;;;5062390;28;20560;-84
2022/06/27 05:42:54;;;;;;;;;;;;;;;;;;5051472;28;20393;-84
2022/06/27 05:45:23;;;;;;;;;;;;;;;;;;5055244;28;20376;-84
2022/06/27 05:47:49;;;;;;;;;;;;;;;;;;5060143;28;19986;-84
2022/06/27 05:50:16;;;;;;;;;;;;;;;;;;5054076;28;20383;-84
2022/06/27 05:52:42;;;;;;;;;;;;;;;;;;5066912;28;20350;-84
2022/06/27 05:55:08;;;;;;;;;;;;;;;;;;5056491;28;19933;-84
2022/06/27 05:57:35;;;;;;;;;;;;;;;;;;5048211;28;19944;-84
2022/06/27 06:00:02;;;;;;;;;;;;;;;;;;5056089;28;19959;-84
2022/06/27 06:02:30;;;;;;;;;;;;;;;;;;5048546;28;21555;-84
2022/06/27 06:04:57;;;;;;;;;;;;;;;;;;5062630;28;19951;-84
2022/06/27 06:07:23;;;;;;;;;;;;;;;;;;5051862;28;19956;-83
2022/06/27 06:09:50;;;;;;;;;;;;;;;;;;5058714;28;19948;-84
2022/06/27 06:12:17;;;;;;;;;;;;;;;;;;5065412;28;19956;-85
2022/06/27 06:14:45;;;;;;;;;;;;;;;;;;5063972;28;19957;-83
2022/06/27 06:17:12;;;;;;;;;;;;;;;;;;5067699;28;19951;-83
2022/06/27 06:19:38;;;;;;;;;;;;;;;;;;5066120;28;20400;-85
2022/06/27 06:22:05;;;;;;;;;;;;;;;;;;5067347;28;19924;-85
2022/06/27 06:24:31;;;;;;;;;;;;;;;;;;5061554;28;19951;-85
2022/06/27 06:27:00;;;;;;;;;;;;;;;;;;5057949;28;19943;-85
2022/06/27 06:29:26;;;;;;;;;;;;;;;;;;5062613;28;19993;-84
2022/06/27 06:31:52;;;;;;;;;;;;;;;;;;5059460;28;19971;-84
2022/06/27 06:34:18;;;;;;;;;;;;;;;;;;5067650;28;20325;-84
2022/06/27 06:36:45;;;;;;;;;;;;;;;;;;5034630;28;19920;-84
2022/06/27 06:39:11;;;;;;;;;;;;;;;;;;5029638;28;19948;-84
2022/06/27 06:41:38;;;;;;;;;;;;;;;;;;5051694;28;19951;-84
2022/06/27 06:44:05;;;;;;;;;;;;;;;;;;5057370;28;19955;-84
2022/06/27 06:46:31;;;;;;;;;;;;;;;;;;5067830;28;19952;-84
2022/06/27 06:49:05;;;;;;;;;;;;;;;;;;5068841;28;19955;-84
2022/06/27 06:51:34;;;;;;;;;;;;;;;;;;5067606;28;20409;-85
2022/06/27 06:54:00;;;;;;;;;;;;;;;;;;5061735;28;19993;-84
2022/06/27 06:56:28;;;;;;;;;;;;;;;;;;5065259;28;19971;-83
2022/06/27 06:58:54;;;;;;;;;;;;;;;;;;5066559;28;19939;-84
2022/06/27 07:01:20;;;;;;;;;;;;;;;;;;5055391;28;19952;-83
2022/06/27 07:03:49;;;;;;;;;;;;;;;;;;5061899;28;19948;-86
2022/06/27 07:06:17;;;;;;;;;;;;;;;;;;5069352;28;20051;-84
2022/06/27 07:08:44;;;;;;;;;;;;;;;;;;5064237;28;19959;-84
2022/06/27 07:11:10;;;;;;;;;;;;;;;;;;5080775;28;20480;-84
2022/06/27 07:13:38;;;;;;;;;;;;;;;;;;5063020;28;19956;-83
2022/06/27 07:16:05;;;;;;;;;;;;;;;;;;5054523;28;20018;-83
2022/06/27 07:18:32;;;;;;;;;;;;;;;;;;5058988;28;20314;-83
2022/06/27 07:21:00;;;;;;;;;;;;;;;;;;5059641;28;20004;-83
2022/06/27 07:23:26;;;;;;;;;;;;;;;;;;5052964;28;20989;-83
2022/06/27 07:25:53;;;;;;;;;;;;;;;;;;5064966;28;19948;-83
2022/06/27 07:28:22;;;;;;;;;;;;;;;;;;5063071;28;19963;-85
2022/06/27 07:30:50;;;;;;;;;;;;;;;;;;5064682;28;19940;-84
2022/06/27 07:33:16;;;;;;;;;;;;;;;;;;5057768;28;19948;-84
2022/06/27 07:35:43;;;;;;;;;;;;;;;;;;5079857;28;20065;-84
2022/06/27 07:38:09;;;;;;;;;;;;;;;;;;5057998;28;19948;-83
2022/06/27 07:40:36;;;;;;;;;;;;;;;;;;5063815;28;20552;-84
2022/06/27 07:43:03;;;;;;;;;;;;;;;;;;5058643;28;19952;-84
2022/06/27 07:45:29;;;;;;;;;;;;;;;;;;5056829;28;19948;-84
2022/06/27 07:47:55;;;;;;;;;;;;;;;;;;5080458;28;19964;-84
2022/06/27 07:50:36;;;;;;;;;;;;;;;;;;5057719;28;19944;-84
2022/06/27 07:53:12;;;;;;;;;;;;;;;;;;5066397;28;20330;-84
2022/06/27 07:55:39;;;;;;;;;;;;;;;;;;5058478;28;21425;-84
2022/06/27 07:58:07;;;;;;;;;;;;;;;;;;5063726;28;19998;-84
2022/06/27 08:00:33;;;;;;;;;;;;;;;;;;5068185;28;19948;-84
2022/06/27 08:03:36;;;;;;;;;;;;;;;;;;5066232;28;20545;-84
2022/06/27 08:05:47;;;;;;;;;;;;;;;;;;5062280;28;20573;-84
2022/06/27 08:08:13;;;;;;;;;;;;;;;;;;5059485;28;19912;-84
2022/06/27 08:10:39;;;;;;;;;;;;;;;;;;5060945;28;19947;-84
2022/06/27 08:13:06;;;;;;;;;;;;;;;;;;5054984;28;19967;-85
2022/06/27 08:15:32;;;;;;;;;;;;;;;;;;5067864;28;21188;-85
2022/06/27 08:18:00;;;;;;;;;;;;;;;;;;5048938;28;20226;-84
2022/06/27 08:20:26;;;;;;;;;;;;;;;;;;5068215;28;19982;-84
2022/06/27 08:22:53;;;;;;;;;;;;;;;;;;5058598;28;19952;-84
2022/06/27 08:25:19;;;;;;;;;;;;;;;;;;5067243;28;19948;-84
2022/06/27 08:27:48;;;;;;;;;;;;;;;;;;5053462;28;19937;-83
2022/06/27 08:30:14;;;;;;;;;;;;;;;;;;5057616;28;20062;-84
2022/06/27 08:32:41;;;;;;;;;;;;;;;;;;5059670;28;19948;-84
2022/06/27 08:35:07;;;;;;;;;;;;;;;;;;5060041;28;19956;-79
2022/06/27 08:37:33;;;;;;;;;;;;;;;;;;5056736;28;19956;-84
2022/06/27 08:40:01;;;;;;;;;;;;;;;;;;5048636;28;20076;-83
2022/06/27 08:42:27;;;;;;;;;;;;;;;;;;5049183;28;19920;-85
2022/06/27 08:44:54;;;;;;;;;;;;;;;;;;5049708;28;19966;-85
2022/06/27 08:47:21;;;;;;;;;;;;;;;;;;5053299;28;19947;-85
2022/06/27 08:49:51;;;;;;;;;;;;;;;;;;5039722;28;19959;-84
2022/06/27 08:52:18;;;;;;;;;;;;;;;;;;5062116;28;19952;-84
2022/06/27 08:54:45;;;;;;;;;;;;;;;;;;5057356;28;19947;-80
2022/06/27 08:57:12;;;;;;;;;;;;;;;;;;5039102;28;19916;-82
2022/06/27 08:59:38;;;;;;;;;;;;;;;;;;5048112;28;19948;-81
2022/06/27 09:02:04;;;;;;;;;;;;;;;;;;5051435;28;19952;-81
2022/06/27 09:04:31;;;;;;;;;;;;;;;;;;5063777;28;19948;-81
2022/06/27 09:06:58;;;;;;;;;;;;;;;;;;5055376;28;20035;-82
2022/06/27 09:09:27;;;;;;;;;;;;;;;;;;5060621;28;19944;-83
2022/06/27 09:11:54;;;;;;;;;;;;;;;;;;5049582;28;19953;-83
2022/06/27 09:14:21;;;;;;;;;;;;;;;;;;5055410;28;19976;-83
2022/06/27 09:16:47;;;;;;;;;;;;;;;;;;5062492;28;19921;-82
2022/06/27 09:19:13;;;;;;;;;;;;;;;;;;5056002;28;20492;-81
2022/06/27 09:21:39;;;;;;;;;;;;;;;;;;5060280;28;19995;-82
2022/06/27 09:24:06;;;;;;;;;;;;;;;;;;5043634;28;19920;-81
2022/06/27 09:26:32;;;;;;;;;;;;;;;;;;5043939;28;20734;-81
2022/06/27 09:28:59;;;;;;;;;;;;;;;;;;5048320;28;19952;-82
2022/06/27 09:31:31;;;;;;;;;;;;;;;;;;5064867;28;19946;-83
2022/06/27 09:33:57;;;;;;;;;;;;;;;;;;5067049;28;19974;-82
2022/06/27 09:36:23;;;;;;;;;;;;;;;;;;5064797;28;19959;-82
2022/06/27 09:38:51;;;;;;;;;;;;;;;;;;5063456;28;20447;-82
2022/06/27 09:41:17;;;;;;;;;;;;;;;;;;5057374;28;19940;-82
2022/06/27 09:43:46;;;;;;;;;;;;;;;;;;5062706;28;20333;-82
2022/06/27 09:46:13;;;;;;;;;;;;;;;;;;5048219;28;19960;-80
2022/06/27 09:48:39;;;;;;;;;;;;;;;;;;5058496;28;19955;-82
2022/06/27 09:51:06;;;;;;;;;;;;;;;;;;5052369;28;19944;-82
2022/06/27 09:53:32;;;;;;;;;;;;;;;;;;5060826;28;19948;-82
2022/06/27 09:55:58;;;;;;;;;;;;;;;;;;5054001;28;19964;-82
2022/06/27 09:58:25;;;;;;;;;;;;;;;;;;5054917;28;19956;-82
2022/06/27 10:00:51;;;;;;;;;;;;;;;;;;5064018;28;20353;-82
2022/06/27 10:03:17;;;;;;;;;;;;;;;;;;5048358;28;19960;-82
2022/06/27 10:05:45;;;;;;;;;;;;;;;;;;5053856;28;20386;-82
2022/06/27 10:08:12;;;;;;;;;;;;;;;;;;5053859;28;19959;-82
2022/06/27 10:10:38;;;;;;;;;;;;;;;;;;5058525;28;19945;-82
2022/06/27 10:13:06;;;;;;;;;;;;;;;;;;5063657;28;19971;-82
2022/06/27 10:15:32;;;;;;;;;;;;;;;;;;5065422;28;19952;-82
2022/06/27 10:17:58;;;;;;;;;;;;;;;;;;5064224;28;20360;-82
2022/06/27 10:20:24;;;;;;;;;;;;;;;;;;5056057;28;19952;-83
2022/06/27 10:22:50;;;;;;;;;;;;;;;;;;5059160;28;19964;-82
2022/06/27 10:25:17;;;;;;;;;;;;;;;;;;5061518;28;20442;-82
2022/06/27 10:27:43;;;;;;;;;;;;;;;;;;5042652;28;19944;-82
2022/06/27 10:30:09;;;;;;;;;;;;;;;;;;5060350;28;19952;-81
2022/06/27 10:32:35;;;;;;;;;;;;;;;;;;5051080;28;19963;-82
2022/06/27 10:35:01;;;;;;;;;;;;;;;;;;5057169;28;19956;-81
2022/06/27 10:37:28;;;;;;;;;;;;;;;;;;5066333;28;19983;-81
2022/06/27 10:39:54;;;;;;;;;;;;;;;;;;5065229;28;19959;-82
2022/06/27 10:42:20;;;;;;;;;;;;;;;;;;5062301;28;19912;-81
2022/06/27 10:44:46;;;;;;;;;;;;;;;;;;5066223;28;19982;-82
2022/06/27 10:47:12;;;;;;;;;;;;;;;;;;5047917;28;19951;-82
2022/06/27 10:49:38;;;;;;;;;;;;;;;;;;5065123;28;20516;-82
2022/06/27 10:52:05;;;;;;;;;;;;;;;;;;5064593;28;19920;-82
2022/06/27 10:54:31;;;;;;;;;;;;;;;;;;5061142;28;19959;-82
2022/06/27 10:56:58;;;;;;;;;;;;;;;;;;5051127;28;19970;-82
2022/06/27 10:59:25;;;;;;;;;;;;;;;;;;5068523;28;19997;-82
2022/06/27 11:01:57;;;;;;;;;;;;;;;;;;5058003;28;20361;-82
2022/06/27 11:04:23;;;;;;;;;;;;;;;;;;5058514;28;20438;-82
2022/06/27 11:06:49;;;;;;;;;;;;;;;;;;5068419;28;19955;-82
2022/06/27 11:09:15;;;;;;;;;;;;;;;;;;5066910;28;19917;-82
2022/06/27 11:11:41;;;;;;;;;;;;;;;;;;5067374;28;19959;-82
2022/06/27 11:14:08;;;;;;;;;;;;;;;;;;5059977;28;20381;-80
2022/06/27 11:16:34;;;;;;;;;;;;;;;;;;5055721;28;19952;-81
2022/06/27 11:19:00;;;;;;;;;;;;;;;;;;5070423;28;19962;-82
2022/06/27 11:21:26;;;;;;;;;;;;;;;;;;5060532;28;19947;-82
2022/06/27 11:23:52;;;;;;;;;;;;;;;;;;5067461;28;20045;-82
2022/06/27 11:26:19;;;;;;;;;;;;;;;;;;5064717;28;19959;-82
2022/06/27 11:34:16;;;;;;;;;;;;;;;;;;5066494;28;19960;-81
2022/06/27 11:36:42;;;;;;;;;;;;;;;;;;5069894;28;20045;-82
2022/06/27 11:39:08;;;;;;;;;;;;;;;;;;5056997;28;20424;-81
2022/06/27 11:41:34;;;;;;;;;;;;;;;;;;5063687;28;20382;-82
2022/06/27 11:44:00;;;;;;;;;;;;;;;;;;5063028;28;20009;-82
2022/06/27 11:46:27;;;;;;;;;;;;;;;;;;5066697;28;19944;-82
2022/06/27 11:48:53;;;;;;;;;;;;;;;;;;5070321;28;19912;-82
2022/06/27 11:51:19;;;;;;;;;;;;;;;;;;5055935;28;19962;-82
2022/06/27 11:53:45;;;;;;;;;;;;;;;;;;5062227;28;20418;-82
2022/06/27 11:56:11;;;;;;;;;;;;;;;;;;5060241;28;19948;-82
2022/06/27 11:58:37;;;;;;;;;;;;;;;;;;5065327;28;20401;-82
2022/06/27 12:01:04;;;;;;;;;;;;;;;;;;5059519;28;19967;-82
2022/06/27 12:03:30;;;;;;;;;;;;;;;;;;5060122;28;19959;-83
2022/06/27 12:05:56;;;;;;;;;;;;;;;;;;5068770;28;19959;-82
2022/06/27 12:08:23;;;;;;;;;;;;;;;;;;5057780;28;20402;-82
2022/06/27 12:13:53;;;;;;;;;;;;;;;;;;5002687;28;20634;-82
2022/06/27 12:16:19;;;;;;;;;;;;;;;;;;5001811;28;19945;-82
2022/06/27 12:18:46;;;;;;;;;;;;;;;;;;5033991;28;19956;-82
2022/06/27 12:21:12;;;;;;;;;;;;;;;;;;5046884;28;19923;-81
2022/06/27 12:23:38;;;;;;;;;;;;;;;;;;5067787;28;19948;-82
2022/06/27 12:26:05;;;;;;;;;;;;;;;;;;5057029;28;19924;-83
2022/06/27 12:28:31;;;;;;;;;;;;;;;;;;5058338;28;20085;-82
2022/06/27 12:30:57;;;;;;;;;;;;;;;;;;5065315;28;19943;-82
2022/06/27 12:33:23;;;;;;;;;;;;;;;;;;5061343;28;20499;-82
2022/06/27 12:35:49;;;;;;;;;;;;;;;;;;5061739;28;19960;-82
2022/06/27 12:38:16;;;;;;;;;;;;;;;;;;5046231;28;19944;-81
2022/06/27 12:40:42;;;;;;;;;;;;;;;;;;5061660;28;20024;-82
2022/06/27 12:43:08;;;;;;;;;;;;;;;;;;5060768;28;19994;-82
2022/06/27 12:45:34;;;;;;;;;;;;;;;;;;5061449;28;19944;-82
2022/06/27 12:48:00;;;;;;;;;;;;;;;;;;5064597;28;19952;-82
2022/06/27 12:50:27;;;;;;;;;;;;;;;;;;5055169;28;20387;-82
2022/06/27 12:52:53;;;;;;;;;;;;;;;;;;5067732;28;19959;-82
2022/06/27 12:55:19;;;;;;;;;;;;;;;;;;5050952;28;20450;-81
2022/06/27 12:57:45;;;;;;;;;;;;;;;;;;5059421;28;19998;-82
2022/06/27 13:00:11;;;;;;;;;;;;;;;;;;5067484;28;19944;-81
2022/06/27 13:02:37;;;;;;;;;;;;;;;;;;5068024;28;19940;-82
2022/06/27 13:05:04;;;;;;;;;;;;;;;;;;5059006;28;19952;-82
2022/06/27 13:07:30;;;;;;;;;;;;;;;;;;5075189;28;20411;-82
2022/06/27 13:09:56;;;;;;;;;;;;;;;;;;5058356;28;19951;-82
2022/06/27 13:12:22;;;;;;;;;;;;;;;;;;5061110;28;19987;-81
2022/06/27 13:14:48;;;;;;;;;;;;;;;;;;5058180;28;19960;-81
2022/06/27 13:17:15;;;;;;;;;;;;;;;;;;5066959;28;19947;-81
2022/06/27 13:19:41;;;;;;;;;;;;;;;;;;5056233;28;19963;-82
2022/06/27 13:22:07;;;;;;;;;;;;;;;;;;5042030;28;19963;-82
2022/06/27 13:24:33;;;;;;;;;;;;;;;;;;5053202;28;19956;-82
2022/06/27 13:27:00;;;;;;;;;;;;;;;;;;5063685;28;19960;-82
2022/06/27 13:29:26;;;;;;;;;;;;;;;;;;5073564;28;20091;-82
2022/06/27 13:31:54;;;;;;;;;;;;;;;;;;5066131;28;19951;-82
2022/06/27 13:34:20;;;;;;;;;;;;;;;;;;5057857;28;19971;-82
2022/06/27 13:36:47;;;;;;;;;;;;;;;;;;5063126;28;19944;-82
2022/06/27 13:39:13;;;;;;;;;;;;;;;;;;5065657;28;19951;-82
2022/06/27 13:41:39;;;;;;;;;;;;;;;;;;5067358;28;19917;-82
2022/06/27 13:44:05;;;;;;;;;;;;;;;;;;5062449;28;19960;-82
2022/06/27 13:46:32;;;;;;;;;;;;;;;;;;5061158;28;19947;-81
2022/06/27 13:48:58;;;;;;;;;;;;;;;;;;5067742;28;20414;-81
2022/06/27 13:51:24;;;;;;;;;;;;;;;;;;5062237;28;19982;-80
2022/06/27 13:53:50;;;;;;;;;;;;;;;;;;5071080;28;19952;-81
2022/06/27 13:56:17;;;;;;;;;;;;;;;;;;5060926;28;19967;-81
2022/06/27 13:58:43;;;;;;;;;;;;;;;;;;5066857;28;19959;-81
2022/06/27 14:01:09;;;;;;;;;;;;;;;;;;5060660;28;20408;-80
2022/06/27 14:03:35;;;;;;;;;;;;;;;;;;5076204;28;19999;-81
2022/06/27 14:08:47;;;;;;;;;;;;;;;;;;5050888;28;21312;-81
2022/06/27 14:11:13;;;;;;;;;;;;;;;;;;5063732;28;19917;-81
2022/06/27 14:13:40;;;;;;;;;;;;;;;;;;5061805;28;19966;-81
2022/06/27 14:16:07;;;;;;;;;;;;;;;;;;5065196;28;19944;-82
2022/06/27 14:18:33;;;;;;;;;;;;;;;;;;5049473;28;20018;-82
2022/06/27 14:20:59;;;;;;;;;;;;;;;;;;5057861;28;19940;-81
2022/06/27 14:23:26;;;;;;;;;;;;;;;;;;5061457;28;19964;-81
2022/06/27 14:25:52;;;;;;;;;;;;;;;;;;5061095;28;20330;-81
2022/06/27 14:28:18;;;;;;;;;;;;;;;;;;5059600;28;19947;-81
2022/06/27 14:30:44;;;;;;;;;;;;;;;;;;5064903;28;20375;-81
2022/06/27 14:33:10;;;;;;;;;;;;;;;;;;5058892;28;19960;-81
2022/06/27 14:35:37;;;;;;;;;;;;;;;;;;5057980;28;19956;-81
2022/06/27 14:38:03;;;;;;;;;;;;;;;;;;5063665;28;19955;-82
2022/06/27 14:40:29;;;;;;;;;;;;;;;;;;5056963;28;19959;-82
2022/06/27 14:42:55;;;;;;;;;;;;;;;;;;5066862;28;20042;-83
2022/06/27 14:45:21;;;;;;;;;;;;;;;;;;5052718;28;19948;-82
2022/06/27 14:47:49;;;;;;;;;;;;;;;;;;5057902;28;20054;-83
2022/06/27 14:50:15;;;;;;;;;;;;;;;;;;5059259;28;19920;-82
2022/06/27 14:52:41;;;;;;;;;;;;;;;;;;5060416;28;19955;-82
2022/06/27 14:55:07;;;;;;;;;;;;;;;;;;5068306;28;19967;-82
2022/06/27 14:57:34;;;;;;;;;;;;;;;;;;5063619;28;19959;-82
2022/06/27 15:00:00;;;;;;;;;;;;;;;;;;5053581;28;19952;-81
2022/06/27 15:02:26;;;;;;;;;;;;;;;;;;5061697;28;19948;-80
2022/06/27 15:04:53;;;;;;;;;;;;;;;;;;5061260;28;20424;-82
2022/06/27 15:07:19;;;;;;;;;;;;;;;;;;5063180;28;19936;-81
2022/06/27 15:09:46;;;;;;;;;;;;;;;;;;5062802;28;19963;-82
2022/06/27 15:12:12;;;;;;;;;;;;;;;;;;5064800;28;19959;-82
2022/06/27 15:14:39;;;;;;;;;;;;;;;;;;5055135;28;19963;-82
2022/06/27 15:17:05;;;;;;;;;;;;;;;;;;5061075;28;19956;-82
2022/06/27 15:19:31;;;;;;;;;;;;;;;;;;5061636;28;20392;-82
2022/06/27 15:21:57;;;;;;;;;;;;;;;;;;5069172;28;19952;-82
2022/06/27 15:24:25;;;;;;;;;;;;;;;;;;5059248;28;20683;-82
2022/06/27 15:26:51;;;;;;;;;;;;;;;;;;5067105;28;20364;-82
2022/06/27 15:29:18;;;;;;;;;;;;;;;;;;5050811;28;19956;-82
2022/06/27 15:31:44;;;;;;;;;;;;;;;;;;5048227;28;19952;-82
2022/06/27 15:34:10;;;;;;;;;;;;;;;;;;5066341;28;19940;-82
2022/06/27 15:36:36;;;;;;;;;;;;;;;;;;5058384;28;19956;-82
2022/06/27 15:39:02;;;;;;;;;;;;;;;;;;5063230;28;20412;-82
2022/06/27 15:41:29;;;;;;;;;;;;;;;;;;5051109;28;20063;-83
2022/06/27 15:43:55;;;;;;;;;;;;;;;;;;5051118;28;20001;-83
2022/06/27 15:46:21;;;;;;;;;;;;;;;;;;5061881;28;20324;-81
2022/06/27 15:48:48;;;;;;;;;;;;;;;;;;5062250;28;19960;-81
2022/06/27 15:51:14;;;;;;;;;;;;;;;;;;5056304;28;19916;-82
2022/06/27 15:53:40;;;;;;;;;;;;;;;;;;5051808;28;19944;-81
2022/06/27 15:56:06;;;;;;;;;;;;;;;;;;5057439;28;19968;-81
2022/06/27 15:58:32;;;;;;;;;;;;;;;;;;5054514;28;19955;-81
2022/06/27 16:00:59;;;;;;;;;;;;;;;;;;5053167;28;20002;-82
2022/06/27 16:03:25;;;;;;;;;;;;;;;;;;5062712;28;19948;-81
2022/06/27 16:05:51;;;;;;;;;;;;;;;;;;5062944;28;19956;-81
2022/06/27 16:08:17;;;;;;;;;;;;;;;;;;5083321;28;20329;-82
2022/06/27 16:10:43;;;;;;;;;;;;;;;;;;5064724;28;19948;-82
2022/06/27 16:13:11;;;;;;;;;;;;;;;;;;5070966;28;20697;-81
2022/06/27 16:15:37;;;;;;;;;;;;;;;;;;5061283;28;19956;-81
2022/06/27 16:18:04;;;;;;;;;;;;;;;;;;5055939;28;20540;-81
2022/06/27 16:20:30;;;;;;;;;;;;;;;;;;5059899;28;19948;-81
2022/06/27 16:22:56;;;;;;;;;;;;;;;;;;5080182;28;19977;-82
2022/06/27 16:25:23;;;;;;;;;;;;;;;;;;5066157;28;19912;-81
2022/06/27 16:27:49;;;;;;;;;;;;;;;;;;5067731;28;19944;-81
2022/06/27 16:31:39;;;;;;;;;;;;;;;;;;5079812;28;20410;-81
2022/06/27 16:33:01;;;;;;;;;;;;;;;;;;5057692;28;20345;-81
2022/06/27 16:35:27;;;;;;;;;;;;;;;;;;5058403;28;20017;-82
2022/06/27 16:37:54;;;;;;;;;;;;;;;;;;5057714;28;19913;-82
2022/06/27 16:40:20;;;;;;;;;;;;;;;;;;5081492;28;19963;-81
2022/06/27 16:45:31;;;;;;;;;;;;;;;;;;5065488;28;19952;-81
2022/06/27 16:47:57;;;;;;;;;;;;;;;;;;5053846;28;20380;-81
2022/06/27 16:50:23;;;;;;;;;;;;;;;;;;5055722;28;20023;-80
2022/06/27 16:52:49;;;;;;;;;;;;;;;;;;5056858;28;20396;-83
2022/06/27 16:55:15;;;;;;;;;;;;;;;;;;5076197;28;19968;-80
2022/06/27 16:57:41;;;;;;;;;;;;;;;;;;5079424;28;19951;-81